This is the latest recevied weather packets stored in our database for station/object OE6JUE. If no packets are shown the sender has not sent any weather packets the latest 10 day(s).
| Time | Temp. | Humidity | Pressure | Rain* | Wind** | Luminosity | Snow |
|---|---|---|---|---|---|---|---|
| 1778067055 | 21.67° C | 47% | 1010.8 hPa | 0 mm | - | - | - |
| 1778066755 | 21.67° C | 46% | 1010.9 hPa | 0 mm | - | - | - |
| 1778066456 | 22.22° C | 45% | 1011 hPa | 0 mm | - | - | - |
| 1778066156 | 22.22° C | 45% | 1011 hPa | 0 mm | - | - | - |
| 1778065856 | 21.67° C | 45% | 1010.9 hPa | 0 mm | - | - | - |
| 1778065556 | 21.67° C | 44% | 1011.2 hPa | 0 mm | - | - | - |
| 1778065255 | 21.11° C | 49% | 1011.4 hPa | - | - | - | - |
| 1778064956 | 21.11° C | 49% | 1011.4 hPa | 0 mm | - | - | - |
| 1778064656 | 21.11° C | 49% | 1011.4 hPa | 0 mm | - | - | - |
| 1778064355 | 21.11° C | 49% | 1011.5 hPa | 0 mm | - | - | - |
| 1778064056 | 21.11° C | 49% | 1011.4 hPa | 0 mm | - | - | - |
| 1778063756 | 21.11° C | 49% | 1011.4 hPa | 0 mm | - | - | - |
| 1778063456 | 21.11° C | 49% | 1011.6 hPa | 0 mm | - | - | - |
| 1778063155 | 21.11° C | 49% | 1011.5 hPa | 0 mm | - | - | - |
| 1778062855 | 21.11° C | 50% | 1011.6 hPa | 0 mm | - | - | - |
| 1778062556 | 21.11° C | 50% | 1011.6 hPa | 0 mm | - | - | - |
| 1778062255 | 20.56° C | 48% | 1011.7 hPa | 0 mm | - | - | - |
| 1778061955 | 20.56° C | 46% | 1011.6 hPa | 0 mm | - | - | - |
| 1778061656 | 21.67° C | 44% | 1011.6 hPa | - | - | - | - |
| 1778061355 | 21.67° C | 44% | 1011.6 hPa | 0 mm | - | - | - |
| 1778061056 | 21.67° C | 43% | 1011.5 hPa | 0 mm | - | - | - |
| 1778060755 | 22.22° C | 42% | 1011.4 hPa | 0 mm | - | - | - |
| 1778060455 | 23.33° C | 37% | 1011.5 hPa | 0 mm | - | - | - |
| 1778060156 | 23.33° C | 37% | 1011.5 hPa | 0 mm | - | - | - |
| 1778059855 | 23.33° C | 36% | 1011.4 hPa | 0 mm | - | - | - |
* Rain latest hour (hover to see other rain measurements)
** Current wind speed in m/s (hover to see current wind gust speed)